Torm Estrid — OXMF2 — position and weather

sailwx.info

Track history (hours):
 
Tides and Currents Weather Stations Pressure Air Temp Water Temp Dewpoint Dewpoint Depression Visibility Wind Speed Wind Dir Waves Ship Positions

Torm Estrid

Last reported at 2017-Nov-18 23:50 UTC. Time now 2017-Nov-19 02:50 UTC.
Position N 41°02' W 010°25'.

Length 229 m; draft 8 m.

Type: Tanker. MMSI: 220237000.

Date/timePositionNaut miles runAvg speedWind from/ knotsBaromVisibWave heightAir tempDewpointWater temp
2017-Nov-18 23:50N 41°02' W 010°25'1814.2
2017-Nov-18 22:32N 40°43' W 010°25'514.1
2017-Nov-18 22:12N 40°39' W 010°25'314.0
2017-Nov-18 22:00N 40°36' W 010°24'1814.1
2017-Nov-18 20:42N 40°17' W 010°25'313.9
2017-Nov-18 20:30N 40°15' W 010°25'713.7
2017-Nov-18 20:00N 40°08' W 010°25'714.2
2017-Nov-18 19:30N 40°01' W 010°24'813.9
2017-Nov-18 18:54N 39°53' W 010°24'614.0
2017-Nov-18 18:30N 39°47' W 010°24'714.2
2017-Nov-18 18:00N 39°40' W 010°25'714.1
2017-Nov-18 17:29N 39°33' W 010°25'714.3
2017-Nov-18 17:01N 39°26' W 010°25'713.8
2017-Nov-18 16:30N 39°19' W 010°25'714.0
2017-Nov-18 16:00N 39°12' W 010°25'714.1
2017-Nov-18 15:30N 39°05' W 010°25'714.0
2017-Nov-18 15:00N 38°58' W 010°25'714.0
2017-Nov-18 14:30N 38°51' W 010°25'713.9
2017-Nov-18 14:00N 38°44' W 010°25'714.0
2017-Nov-18 13:30N 38°37' W 010°25'714.2
2017-Nov-18 13:00N 38°30' W 010°25'714.4
2017-Nov-18 12:30N 38°22' W 010°25'714.3
2017-Nov-18 12:01N 38°15' W 010°25'714.2
2017-Nov-18 11:31N 38°08' W 010°25'714.1
2017-Nov-18 11:01N 38°01' W 010°25'714.1
2017-Nov-18 10:31N 37°54' W 010°25'714.0
2017-Nov-18 10:00N 37°47' W 010°25'714.0
2017-Nov-18 09:30N 37°40' W 010°25'714.2
2017-Nov-18 09:00N 37°33' W 010°25'714.2
2017-Nov-18 08:30N 37°26' W 010°25'714.0
2017-Nov-18 08:00N 37°19' W 010°25'713.9
2017-Nov-18 07:31N 37°12' W 010°26'714.0
2017-Nov-18 07:00N 37°05' W 010°26'1913.7
2017-Nov-18 05:37N 36°46' W 010°24'213.9
2017-Nov-18 05:30N 36°44' W 010°23'713.9
2017-Nov-18 04:59N 36°38' W 010°20'713.8
2017-Nov-18 04:29N 36°31' W 010°17'2113.9
2017-Nov-18 02:59N 36°12' W 010°08'714.1
2017-Nov-18 02:30N 36°05' W 010°04'714.1
2017-Nov-18 02:00N 35°59' W 010°01'714.4
2017-Nov-18 01:29N 35°52' W 009°58'  
Track history (hours):
 
Tides and Currents Weather Stations Pressure Air Temp Water Temp Dewpoint Dewpoint Depression Visibility Wind Speed Wind Dir Waves Ship Positions

Torm Estrid

Last reported at 2017-Nov-18 23:50 UTC. Time now 2017-Nov-19 02:50 UTC.
Position N 41°02' W 010°25'.

Length 229 m; draft 8 m.

Type: Tanker. MMSI: 220237000.

Date/timePositionNaut miles runAvg speedWind from/ knotsBaromVisibWave heightAir tempDewpointWater temp
2017-Nov-18 23:50N 41°02' W 010°25'1814.2
2017-Nov-18 22:32N 40°43' W 010°25'514.1
2017-Nov-18 22:12N 40°39' W 010°25'314.0
2017-Nov-18 22:00N 40°36' W 010°24'1814.1
2017-Nov-18 20:42N 40°17' W 010°25'313.9
2017-Nov-18 20:30N 40°15' W 010°25'713.7
2017-Nov-18 20:00N 40°08' W 010°25'714.2
2017-Nov-18 19:30N 40°01' W 010°24'813.9
2017-Nov-18 18:54N 39°53' W 010°24'614.0
2017-Nov-18 18:30N 39°47' W 010°24'714.2
2017-Nov-18 18:00N 39°40' W 010°25'714.1
2017-Nov-18 17:29N 39°33' W 010°25'714.3
2017-Nov-18 17:01N 39°26' W 010°25'713.8
2017-Nov-18 16:30N 39°19' W 010°25'714.0
2017-Nov-18 16:00N 39°12' W 010°25'714.1
2017-Nov-18 15:30N 39°05' W 010°25'714.0
2017-Nov-18 15:00N 38°58' W 010°25'714.0
2017-Nov-18 14:30N 38°51' W 010°25'713.9
2017-Nov-18 14:00N 38°44' W 010°25'714.0
2017-Nov-18 13:30N 38°37' W 010°25'714.2
2017-Nov-18 13:00N 38°30' W 010°25'714.4
2017-Nov-18 12:30N 38°22' W 010°25'714.3
2017-Nov-18 12:01N 38°15' W 010°25'714.2
2017-Nov-18 11:31N 38°08' W 010°25'714.1
2017-Nov-18 11:01N 38°01' W 010°25'714.1
2017-Nov-18 10:31N 37°54' W 010°25'714.0
2017-Nov-18 10:00N 37°47' W 010°25'714.0
2017-Nov-18 09:30N 37°40' W 010°25'714.2
2017-Nov-18 09:00N 37°33' W 010°25'714.2
2017-Nov-18 08:30N 37°26' W 010°25'714.0
2017-Nov-18 08:00N 37°19' W 010°25'713.9
2017-Nov-18 07:31N 37°12' W 010°26'714.0
2017-Nov-18 07:00N 37°05' W 010°26'1913.7
2017-Nov-18 05:37N 36°46' W 010°24'213.9
2017-Nov-18 05:30N 36°44' W 010°23'713.9
2017-Nov-18 04:59N 36°38' W 010°20'713.8
2017-Nov-18 04:29N 36°31' W 010°17'2113.9
2017-Nov-18 02:59N 36°12' W 010°08'714.1
2017-Nov-18 02:30N 36°05' W 010°04'714.1
2017-Nov-18 02:00N 35°59' W 010°01'714.4
2017-Nov-18 01:29N 35°52' W 009°58'  

Dump ship's entire track history